createdAt,value
2018-12-12T00:00:30.373Z,938.9
2018-12-12T00:01:30.273Z,939
2018-12-12T00:02:30.395Z,938.9
2018-12-12T00:03:30.308Z,939
2018-12-12T00:04:30.193Z,939
2018-12-12T00:05:30.103Z,939
2018-12-12T00:06:30.675Z,939
2018-12-12T00:07:30.566Z,939
2018-12-12T00:08:30.516Z,939
2018-12-12T00:09:30.323Z,939
2018-12-12T00:10:30.124Z,939
2018-12-12T00:11:29.852Z,939
2018-12-12T00:12:29.578Z,939.1
2018-12-12T00:13:29.302Z,938.9
2018-12-12T00:14:29.031Z,939
2018-12-12T00:15:28.766Z,939
2018-12-12T00:16:29.088Z,939
2018-12-12T00:17:28.991Z,938.9
2018-12-12T00:18:28.898Z,939
2018-12-12T00:19:28.770Z,939
2018-12-12T00:20:28.672Z,939
2018-12-12T00:21:28.774Z,938.9
2018-12-12T00:22:28.647Z,938.8
2018-12-12T00:23:28.523Z,939
2018-12-12T00:24:28.414Z,939
2018-12-12T00:25:28.344Z,939
2018-12-12T00:26:28.694Z,937.4
2018-12-12T00:27:28.566Z,938.9
2018-12-12T00:28:28.458Z,939
2018-12-12T00:29:28.334Z,939
2018-12-12T00:30:28.250Z,938.9
2018-12-12T00:31:28.159Z,939
2018-12-12T00:32:28.121Z,938.6
2018-12-12T00:33:27.996Z,939
2018-12-12T00:34:27.882Z,938.9
2018-12-12T00:35:27.752Z,939
2018-12-12T00:36:28.283Z,939
2018-12-12T00:37:28.178Z,939
2018-12-12T00:38:28.050Z,937.2
2018-12-12T00:39:28.172Z,938.9
2018-12-12T00:40:28.066Z,939
2018-12-12T00:41:27.953Z,938.8
2018-12-12T00:42:27.890Z,938.9
2018-12-12T00:43:27.810Z,938.9
2018-12-12T00:44:27.688Z,939
2018-12-12T00:45:27.585Z,938.8
2018-12-12T00:46:28.201Z,938.9
2018-12-12T00:47:28.087Z,939
2018-12-12T00:48:28.002Z,938.7
2018-12-12T00:49:27.904Z,938.8
2018-12-12T00:50:27.798Z,938.9
2018-12-12T00:51:27.713Z,938.8
2018-12-12T00:52:27.593Z,939
2018-12-12T00:53:27.568Z,938.9
2018-12-12T00:54:27.454Z,938.9
2018-12-12T00:55:27.418Z,938.9
2018-12-12T00:56:27.960Z,938.7
2018-12-12T00:57:27.830Z,938.9
2018-12-12T00:58:27.722Z,939
2018-12-12T00:59:28.152Z,938.9
2018-12-12T01:00:27.887Z,938.7
2018-12-12T01:01:27.702Z,938.9
2018-12-12T01:02:27.437Z,938.9
2018-12-12T01:03:27.160Z,938.9
2018-12-12T01:04:26.919Z,938.9
2018-12-12T01:05:26.652Z,938.9
2018-12-12T01:06:26.987Z,938.9
2018-12-12T01:07:27.607Z,939
2018-12-12T01:08:27.526Z,938.9
2018-12-12T01:09:27.443Z,937.6
2018-12-12T01:10:27.657Z,938.9
2018-12-12T01:11:27.535Z,938.8
2018-12-12T01:12:27.442Z,938.8
2018-12-12T01:13:27.329Z,938.9
2018-12-12T01:14:27.228Z,939
2018-12-12T01:15:27.195Z,939
2018-12-12T01:16:28.217Z,938.9
2018-12-12T01:17:28.106Z,937.8
2018-12-12T01:18:27.828Z,939
2018-12-12T01:19:28.238Z,938.9
2018-12-12T01:20:27.994Z,939
2018-12-12T01:21:27.734Z,939
2018-12-12T01:22:27.458Z,939.1
2018-12-12T01:23:27.181Z,939
2018-12-12T01:24:27.135Z,939
2018-12-12T01:25:26.865Z,939
2018-12-12T01:26:27.178Z,939
2018-12-12T01:27:27.830Z,939
2018-12-12T01:28:27.703Z,939
2018-12-12T01:29:27.585Z,939
2018-12-12T01:30:27.706Z,939
2018-12-12T01:31:27.620Z,939
2018-12-12T01:32:27.513Z,939
2018-12-12T01:33:27.395Z,939
2018-12-12T01:34:27.543Z,938.9
2018-12-12T01:35:27.427Z,939
2018-12-12T01:36:27.983Z,939
2018-12-12T01:37:27.871Z,939.1
2018-12-12T01:38:27.748Z,939.1
2018-12-12T01:39:27.697Z,939
2018-12-12T01:40:27.601Z,939.1
2018-12-12T01:41:27.497Z,939.1
2018-12-12T01:42:27.397Z,939
2018-12-12T01:43:27.287Z,939
2018-12-12T01:44:27.173Z,939.1
2018-12-12T01:45:27.067Z,937.8
2018-12-12T01:46:27.393Z,939
2018-12-12T01:47:28.011Z,939.1
2018-12-12T01:48:27.903Z,939.1
2018-12-12T01:49:27.802Z,939
2018-12-12T01:50:27.698Z,939
2018-12-12T01:51:27.603Z,939
2018-12-12T01:52:27.497Z,939
2018-12-12T01:53:27.401Z,939
2018-12-12T01:54:27.311Z,939.1
2018-12-12T01:55:27.220Z,939
2018-12-12T01:56:27.753Z,939
2018-12-12T01:57:27.655Z,938.5
2018-12-12T01:58:27.551Z,939.1
2018-12-12T01:59:27.461Z,939.1
2018-12-12T02:00:27.352Z,939.1
2018-12-12T02:01:27.255Z,938.9
2018-12-12T02:02:27.216Z,939.2
2018-12-12T02:03:27.102Z,939.2
2018-12-12T02:04:27.017Z,939.2
2018-12-12T02:05:27.136Z,939.1
2018-12-12T02:06:27.438Z,939.1
2018-12-12T02:07:27.333Z,939.1
2018-12-12T02:08:27.747Z,939.2
2018-12-12T02:09:27.491Z,939.1
2018-12-12T02:10:27.223Z,939
2018-12-12T02:11:26.960Z,939.1
2018-12-12T02:12:26.710Z,939.2
2018-12-12T02:13:26.438Z,939.1
2018-12-12T02:14:26.159Z,939.1
2018-12-12T02:15:25.910Z,939.1
2018-12-12T02:16:26.053Z,939.1
2018-12-12T02:17:25.982Z,939.1
2018-12-12T02:18:25.764Z,939.1
2018-12-12T02:19:25.514Z,939.1
2018-12-12T02:20:25.236Z,939
2018-12-12T02:21:25.012Z,939.1
2018-12-12T02:22:24.736Z,939
2018-12-12T02:23:24.464Z,939.1
2018-12-12T02:24:24.200Z,939.1
2018-12-12T02:25:24.156Z,939.1
2018-12-12T02:26:24.330Z,939
2018-12-12T02:27:24.058Z,938.8
2018-12-12T02:28:23.779Z,939
2018-12-12T02:29:23.724Z,939
2018-12-12T02:30:23.461Z,938.9
2018-12-12T02:31:23.196Z,938.9
2018-12-12T02:32:23.092Z,938.8
2018-12-12T02:33:22.853Z,938.9
2018-12-12T02:34:22.590Z,938.8
2018-12-12T02:35:22.322Z,938.9
2018-12-12T02:36:22.482Z,938.7
2018-12-12T02:37:22.242Z,938.9
2018-12-12T02:38:22.135Z,938.9
2018-12-12T02:39:22.028Z,938.9
2018-12-12T02:40:21.777Z,938.9
2018-12-12T02:41:21.904Z,938.7
2018-12-12T02:42:21.791Z,938.9
2018-12-12T02:43:21.719Z,937.6
2018-12-12T02:44:21.620Z,938.8
2018-12-12T02:45:21.508Z,938.9
2018-12-12T02:46:21.849Z,938.7
2018-12-12T02:47:21.760Z,938.9
2018-12-12T02:48:21.876Z,938.9
2018-12-12T02:49:21.803Z,938.9
2018-12-12T02:50:21.717Z,938.9
2018-12-12T02:51:21.608Z,938.8
2018-12-12T02:52:21.495Z,938.9
2018-12-12T02:53:21.402Z,938.8
2018-12-12T02:54:21.342Z,938.9
2018-12-12T02:55:23.928Z,938.8
2018-12-12T02:56:24.575Z,938.6
2018-12-12T02:57:24.548Z,938.8
2018-12-12T02:58:24.653Z,938.8
2018-12-12T02:59:24.636Z,938.8
2018-12-12T03:00:24.524Z,938.8
2018-12-12T03:01:25.108Z,938.7
2018-12-12T03:02:24.992Z,938.9
2018-12-12T03:03:24.901Z,938.8
2018-12-12T03:04:24.831Z,938.5
2018-12-12T03:05:24.974Z,938.8
2018-12-12T03:06:25.293Z,938.8
2018-12-12T03:07:25.450Z,938.8
2018-12-12T03:08:25.520Z,938.8
2018-12-12T03:09:25.434Z,938.8
2018-12-12T03:10:25.336Z,938.9
2018-12-12T03:11:26.500Z,938.7
2018-12-12T03:12:26.402Z,938.7
2018-12-12T03:13:26.298Z,938.8
2018-12-12T03:14:26.217Z,938.7
2018-12-12T03:15:26.118Z,938.7
2018-12-12T03:16:26.474Z,938.8
2018-12-12T03:17:26.392Z,938.9
2018-12-12T03:18:26.314Z,938.8
2018-12-12T03:19:26.196Z,938.8
2018-12-12T03:20:26.345Z,938.8
2018-12-12T03:21:26.322Z,938.8
2018-12-12T03:22:26.215Z,938.9
2018-12-12T03:23:26.112Z,938.8
2018-12-12T03:24:25.997Z,938.8
2018-12-12T03:25:25.904Z,938.8
2018-12-12T03:26:26.318Z,938.7
2018-12-12T03:27:26.374Z,938.8
2018-12-12T03:28:26.263Z,938.8
2018-12-12T03:29:26.397Z,938.7
2018-12-12T03:30:26.334Z,938.4
2018-12-12T03:31:26.238Z,937.1
2018-12-12T03:32:26.186Z,938.8
2018-12-12T03:33:26.824Z,938.7
2018-12-12T03:34:26.700Z,938.8
2018-12-12T03:35:26.593Z,938.7
2018-12-12T03:36:27.577Z,938.7
2018-12-12T03:37:27.485Z,938.6
2018-12-12T03:38:28.101Z,938.7
2018-12-12T03:39:27.999Z,938.7
2018-12-12T03:40:27.890Z,938.6
2018-12-12T03:41:28.498Z,938.7
2018-12-12T03:42:28.406Z,938.7
2018-12-12T03:43:28.320Z,938.6
2018-12-12T03:44:28.209Z,938.6
2018-12-12T03:45:28.827Z,938.6
2018-12-12T03:46:29.149Z,938.6
2018-12-12T03:47:29.269Z,938.6
2018-12-12T03:48:29.181Z,938.6
2018-12-12T03:49:29.092Z,938.6
2018-12-12T03:50:29.213Z,938.5
2018-12-12T03:51:29.091Z,938.7
2018-12-12T03:52:28.997Z,938.6
2018-12-12T03:53:28.907Z,938.6
2018-12-12T03:54:29.055Z,938.7
2018-12-12T03:55:28.959Z,938.6
2018-12-12T03:56:29.259Z,938.5
2018-12-12T03:57:29.139Z,938.6
2018-12-12T03:58:29.013Z,938.6
2018-12-12T03:59:28.933Z,938.7
2018-12-12T04:00:28.824Z,938.6
2018-12-12T04:01:28.708Z,938.6
2018-12-12T04:02:28.590Z,938
2018-12-12T04:03:28.492Z,938.5
2018-12-12T04:04:28.369Z,938.6
2018-12-12T04:05:28.278Z,938.6
2018-12-12T04:06:29.265Z,938.6
2018-12-12T04:07:29.232Z,938.6
2018-12-12T04:08:29.821Z,938.6
2018-12-12T04:09:29.571Z,938.6
2018-12-12T04:10:29.314Z,938.7
2018-12-12T04:11:29.046Z,938.5
2018-12-12T04:12:28.778Z,938.5
2018-12-12T04:13:28.738Z,938.6
2018-12-12T04:14:28.479Z,938.6
2018-12-12T04:15:28.237Z,938.7
2018-12-12T04:16:28.584Z,937.1
2018-12-12T04:17:28.570Z,938.6
2018-12-12T04:18:28.465Z,938.7
2018-12-12T04:19:28.449Z,938.6
2018-12-12T04:20:28.369Z,938.5
2018-12-12T04:21:28.287Z,938.4
2018-12-12T04:22:28.185Z,938.5
2018-12-12T04:23:28.110Z,938.4
2018-12-12T04:24:28.015Z,938.4
2018-12-12T04:25:28.147Z,938.5
2018-12-12T04:26:28.518Z,938.4
2018-12-12T04:27:28.410Z,938.5
2018-12-12T04:28:28.304Z,938.5
2018-12-12T04:29:28.217Z,938.5
2018-12-12T04:30:28.113Z,938.4
2018-12-12T04:31:28.028Z,938.5
2018-12-12T04:32:27.908Z,938.4
2018-12-12T04:33:27.794Z,938.4
2018-12-12T04:34:27.694Z,938.5
2018-12-12T04:35:27.576Z,938.3
2018-12-12T04:36:27.892Z,937.6
2018-12-12T04:37:27.791Z,938.3
2018-12-12T04:38:27.682Z,938.4
2018-12-12T04:39:27.599Z,938.4
2018-12-12T04:40:27.508Z,938.3
2018-12-12T04:41:27.412Z,937.8
2018-12-12T04:42:27.318Z,938.4
2018-12-12T04:43:27.200Z,938.3
2018-12-12T04:44:27.171Z,938.4
2018-12-12T04:45:27.080Z,938.4
2018-12-12T04:46:27.443Z,938.2
2018-12-12T04:47:27.337Z,938.2
2018-12-12T04:48:27.232Z,938.3
2018-12-12T04:49:27.131Z,938.3
2018-12-12T04:50:27.007Z,938.3
2018-12-12T04:51:26.884Z,938.3
2018-12-12T04:52:26.770Z,938.4
2018-12-12T04:53:26.674Z,937.7
2018-12-12T04:54:26.632Z,938.4
2018-12-12T04:55:26.517Z,938.3
2018-12-12T04:56:26.806Z,938.3
2018-12-12T04:57:26.917Z,938.4
2018-12-12T04:58:26.804Z,938.3
2018-12-12T04:59:26.718Z,938.3
2018-12-12T05:00:26.617Z,938.3
2018-12-12T05:01:26.507Z,938.4
2018-12-12T05:02:26.405Z,938.5
2018-12-12T05:03:26.289Z,938.5
2018-12-12T05:04:26.231Z,938.5
2018-12-12T05:05:26.143Z,938.3
2018-12-12T05:06:26.475Z,938.5
2018-12-12T05:07:26.417Z,938.5
2018-12-12T05:08:26.145Z,938.6
2018-12-12T05:09:25.893Z,938.6
2018-12-12T05:10:25.645Z,938.4
2018-12-12T05:11:25.375Z,938.5
2018-12-12T05:12:25.100Z,938.5
2018-12-12T05:13:24.841Z,938.6
2018-12-12T05:14:24.557Z,938.6
2018-12-12T05:15:24.278Z,938.7
2018-12-12T05:16:24.415Z,938.6
2018-12-12T05:17:24.137Z,938.6
2018-12-12T05:18:23.869Z,938.6
2018-12-12T05:19:23.595Z,938.7
2018-12-12T05:20:23.317Z,938.6
2018-12-12T05:21:23.103Z,938.5
2018-12-12T05:22:22.829Z,938.6
2018-12-12T05:23:22.553Z,938.6
2018-12-12T05:24:22.271Z,938.5
2018-12-12T05:25:22.009Z,938.6
2018-12-12T05:26:22.311Z,938.6
2018-12-12T05:27:22.237Z,938.6
2018-12-12T05:28:22.115Z,938.7
2018-12-12T05:29:21.986Z,938.5
2018-12-12T05:30:21.939Z,938.6
2018-12-12T05:31:21.833Z,938.6
2018-12-12T05:32:21.737Z,938.7
2018-12-12T05:33:21.617Z,937.8
2018-12-12T05:34:21.505Z,938.5
2018-12-12T05:35:21.389Z,938.6
2018-12-12T05:36:21.675Z,938.6
2018-12-12T05:37:21.617Z,938.6
2018-12-12T05:38:24.381Z,938.7
2018-12-12T05:39:24.107Z,938.6
2018-12-12T05:40:23.855Z,938.7
2018-12-12T05:41:23.591Z,938.7
2018-12-12T05:42:23.305Z,938.6
2018-12-12T05:43:23.056Z,938.7
2018-12-12T05:44:23.881Z,938.7
2018-12-12T05:45:23.603Z,938.7
2018-12-12T05:46:23.899Z,938.7
2018-12-12T05:47:23.773Z,938.8
2018-12-12T05:48:23.736Z,938.9
2018-12-12T05:49:23.635Z,938.8
2018-12-12T05:50:23.517Z,938.8
2018-12-12T05:51:23.397Z,938.8
2018-12-12T05:52:23.286Z,938.8
2018-12-12T05:53:23.176Z,938.6
2018-12-12T05:54:23.085Z,938.6
2018-12-12T05:55:22.976Z,938.6
2018-12-12T05:56:23.315Z,938.7
2018-12-12T05:57:23.206Z,938.7
2018-12-12T05:58:23.095Z,938.9
2018-12-12T05:59:23.024Z,938.9
2018-12-12T06:00:22.963Z,938.9
2018-12-12T06:01:22.855Z,938.9
2018-12-12T06:02:25.358Z,938.9
2018-12-12T06:03:25.246Z,939
2018-12-12T06:04:25.171Z,938.9
2018-12-12T06:05:25.058Z,938.9
2018-12-12T06:06:25.438Z,938.9
2018-12-12T06:07:25.311Z,938.9
2018-12-12T06:08:25.386Z,939
2018-12-12T06:09:25.294Z,939
2018-12-12T06:10:25.176Z,939
2018-12-12T06:11:25.059Z,938.9
2018-12-12T06:12:24.952Z,939
2018-12-12T06:13:24.834Z,938.8
2018-12-12T06:14:24.726Z,939
2018-12-12T06:15:24.639Z,939
2018-12-12T06:16:24.934Z,939
2018-12-12T06:17:24.816Z,939
2018-12-12T06:18:24.540Z,939
2018-12-12T06:19:24.298Z,939
2018-12-12T06:20:24.022Z,938.9
2018-12-12T06:21:23.774Z,938.9
2018-12-12T06:22:23.510Z,938.9
2018-12-12T06:23:23.232Z,939
2018-12-12T06:24:22.965Z,938.8
2018-12-12T06:25:22.776Z,938.8
2018-12-12T06:26:23.118Z,939
2018-12-12T06:27:23.002Z,939
2018-12-12T06:28:22.912Z,939
2018-12-12T06:29:22.888Z,939
2018-12-12T06:30:22.785Z,939
2018-12-12T06:31:22.696Z,939.1
2018-12-12T06:32:22.580Z,939
2018-12-12T06:33:22.498Z,939.2
2018-12-12T06:34:22.399Z,939.2
2018-12-12T06:35:22.298Z,939.2
2018-12-12T06:36:22.635Z,939
2018-12-12T06:37:22.550Z,939
2018-12-12T06:38:22.440Z,939
2018-12-12T06:39:22.336Z,939.2
2018-12-12T06:40:22.295Z,939.2
2018-12-12T06:41:22.178Z,939.2
2018-12-12T06:42:22.076Z,938.8
2018-12-12T06:43:21.963Z,939.1
2018-12-12T06:44:21.849Z,939.2
2018-12-12T06:45:21.798Z,938.6
2018-12-12T06:46:22.120Z,938.5
2018-12-12T06:47:22.035Z,939.2
2018-12-12T06:48:21.780Z,939.2
2018-12-12T06:49:21.504Z,939
2018-12-12T06:50:21.238Z,939.2
2018-12-12T06:51:20.966Z,939.3
2018-12-12T06:52:20.698Z,939.1
2018-12-12T06:53:20.420Z,939.3
2018-12-12T06:54:20.162Z,939.2
2018-12-12T06:55:19.876Z,939.3
2018-12-12T06:56:20.014Z,939.3
2018-12-12T06:57:19.740Z,939.3
2018-12-12T06:58:19.468Z,939.3
2018-12-12T06:59:19.210Z,939.2
2018-12-12T07:00:18.938Z,939.3
2018-12-12T07:01:18.660Z,939.3
2018-12-12T07:02:18.387Z,939.3
2018-12-12T07:03:18.101Z,939.2
2018-12-12T07:04:17.856Z,939.3
2018-12-12T07:05:17.607Z,939.1
2018-12-12T07:06:17.926Z,939.1
2018-12-12T07:07:17.820Z,939.3
2018-12-12T07:08:17.712Z,939.3
2018-12-12T07:09:17.594Z,939.3
2018-12-12T07:10:17.494Z,939.3
2018-12-12T07:11:17.380Z,939.3
2018-12-12T07:12:17.284Z,939.4
2018-12-12T07:13:17.182Z,939.3
2018-12-12T07:14:17.110Z,939.4
2018-12-12T07:15:17.013Z,939.3
2018-12-12T07:16:17.375Z,939.2
2018-12-12T07:17:17.289Z,939.2
2018-12-12T07:18:17.179Z,939.3
2018-12-12T07:19:17.076Z,939.4
2018-12-12T07:20:16.973Z,939.4
2018-12-12T07:21:16.877Z,939.5
2018-12-12T07:22:16.755Z,939.4
2018-12-12T07:23:16.638Z,939.4
2018-12-12T07:24:16.526Z,939.4
2018-12-12T07:25:16.415Z,939.2
2018-12-12T07:26:16.751Z,939.4
2018-12-12T07:27:16.664Z,939.4
2018-12-12T07:28:16.563Z,939.5
2018-12-12T07:29:16.453Z,939.4
2018-12-12T07:30:16.349Z,939.3
2018-12-12T07:31:16.278Z,939.5
2018-12-12T07:32:16.178Z,939.4
2018-12-12T07:33:16.052Z,939.3
2018-12-12T07:34:15.937Z,939.5
2018-12-12T07:35:15.833Z,939.5
2018-12-12T07:36:16.135Z,939.5
2018-12-12T07:37:16.007Z,939.4
2018-12-12T07:38:15.901Z,939.4
2018-12-12T07:39:18.902Z,939.4
2018-12-12T07:40:18.801Z,939.4
2018-12-12T07:41:18.730Z,939.5
2018-12-12T07:42:18.695Z,939.4
2018-12-12T07:43:18.589Z,939.3
2018-12-12T07:44:18.489Z,939.4
2018-12-12T07:45:18.386Z,939.2
2018-12-12T07:46:18.714Z,937.6
2018-12-12T07:47:18.658Z,939.2
2018-12-12T07:48:18.536Z,939.3
2018-12-12T07:49:18.419Z,939.1
2018-12-12T07:50:18.330Z,937.7
2018-12-12T07:51:18.221Z,939.1
2018-12-12T07:52:18.107Z,939.3
2018-12-12T07:53:18.032Z,939.1
2018-12-12T07:54:17.971Z,939.2
2018-12-12T07:55:17.864Z,939.2
2018-12-12T07:56:18.181Z,939.1
2018-12-12T07:57:18.084Z,939
2018-12-12T07:58:17.999Z,939.2
2018-12-12T07:59:17.881Z,939.1
2018-12-12T08:00:17.784Z,939.2
2018-12-12T08:01:17.664Z,939.2
2018-12-12T08:02:17.553Z,939.1
2018-12-12T08:03:17.459Z,939.2
2018-12-12T08:04:17.343Z,939.2
2018-12-12T08:05:17.259Z,939.2
2018-12-12T08:06:17.594Z,939.2
2018-12-12T08:07:17.489Z,939.2
2018-12-12T08:08:17.251Z,939.2
2018-12-12T08:09:16.979Z,939.3
2018-12-12T08:10:16.723Z,939.2
2018-12-12T08:11:16.463Z,939.2
2018-12-12T08:12:16.233Z,939.2
2018-12-12T08:13:15.978Z,939.2
2018-12-12T08:14:15.735Z,939.2
2018-12-12T08:15:15.453Z,939.1
2018-12-12T08:16:15.763Z,939.2
2018-12-12T08:17:15.666Z,939.2
2018-12-12T08:18:15.549Z,939.2
2018-12-12T08:19:15.431Z,939.1
2018-12-12T08:20:15.325Z,939.2
2018-12-12T08:21:15.190Z,939.2
2018-12-12T08:22:15.064Z,939.2
2018-12-12T08:23:14.948Z,939
2018-12-12T08:24:14.837Z,939.2
2018-12-12T08:25:14.741Z,939.1
2018-12-12T08:26:15.052Z,939.1
2018-12-12T08:27:14.930Z,939.2
2018-12-12T08:28:14.825Z,939.1
2018-12-12T08:29:14.710Z,938.3
2018-12-12T08:30:14.664Z,939.1
2018-12-12T08:31:14.555Z,939.2
2018-12-12T08:32:14.523Z,937.8
2018-12-12T08:33:15.892Z,939.1
2018-12-12T08:34:15.784Z,939.2
2018-12-12T08:35:15.702Z,939.2
2018-12-12T08:36:16.028Z,939.3
2018-12-12T08:37:16.000Z,939.2
2018-12-12T08:38:15.887Z,939.1
2018-12-12T08:39:15.782Z,939.1
2018-12-12T08:40:15.674Z,939.1
2018-12-12T08:41:15.590Z,939.1
2018-12-12T08:42:15.484Z,939.2
2018-12-12T08:43:15.379Z,939.3
2018-12-12T08:44:15.290Z,939.4
2018-12-12T08:45:15.214Z,939.1
2018-12-12T08:46:15.567Z,939.2
2018-12-12T08:47:15.572Z,939.2
2018-12-12T08:48:15.307Z,939.3
2018-12-12T08:49:15.044Z,939.3
2018-12-12T08:50:14.776Z,939.3
2018-12-12T08:51:14.505Z,939.3
2018-12-12T08:52:14.256Z,939.2
2018-12-12T08:53:13.978Z,939.3
2018-12-12T08:54:13.709Z,939.2
2018-12-12T08:55:18.550Z,939.1
2018-12-12T08:56:18.898Z,939.3
2018-12-12T08:57:18.811Z,939.3
2018-12-12T08:58:18.764Z,939.1
2018-12-12T08:59:18.709Z,939.3
2018-12-12T09:00:18.656Z,939.2
2018-12-12T09:01:18.557Z,939.2
2018-12-12T09:02:18.460Z,939.3
2018-12-12T09:03:18.688Z,939.3
2018-12-12T09:04:18.588Z,939.3
2018-12-12T09:05:18.480Z,939.3
2018-12-12T09:06:18.800Z,939.2
2018-12-12T09:07:18.706Z,939.3
2018-12-12T09:08:18.633Z,939.1
2018-12-12T09:09:18.522Z,939.3
2018-12-12T09:10:18.441Z,939.1
2018-12-12T09:11:18.332Z,939.3
2018-12-12T09:12:18.238Z,939.3
2018-12-12T09:13:18.153Z,939.2
2018-12-12T09:14:18.036Z,939.3
2018-12-12T09:15:17.928Z,939.3
2018-12-12T09:16:18.267Z,939.2
2018-12-12T09:17:18.174Z,939.3
2018-12-12T09:18:18.068Z,939.3
2018-12-12T09:19:17.981Z,939.3
2018-12-12T09:20:17.878Z,939.3
2018-12-12T09:21:17.761Z,939.3
2018-12-12T09:22:17.658Z,939.4
2018-12-12T09:23:17.550Z,939.3
2018-12-12T09:24:17.439Z,939.3
2018-12-12T09:25:17.336Z,939.3
2018-12-12T09:26:17.669Z,939.3
2018-12-12T09:27:17.578Z,939.3
2018-12-12T09:28:17.482Z,939.3
2018-12-12T09:29:17.375Z,939.3
2018-12-12T09:30:17.280Z,939.3
2018-12-12T09:31:17.173Z,939.3
2018-12-12T09:32:17.044Z,939
2018-12-12T09:33:16.933Z,939.3
2018-12-12T09:34:16.831Z,939.3
2018-12-12T09:35:17.757Z,939.2
2018-12-12T09:36:18.059Z,939.2
2018-12-12T09:37:17.965Z,939.2
2018-12-12T09:38:17.860Z,939.2
2018-12-12T09:39:17.744Z,939.3
2018-12-12T09:40:17.652Z,939.3
2018-12-12T09:41:17.556Z,939.2
2018-12-12T09:42:17.448Z,939.2
2018-12-12T09:43:17.343Z,937.5
2018-12-12T09:44:17.239Z,939
2018-12-12T09:45:22.688Z,939.2
2018-12-12T09:46:22.995Z,937.5
2018-12-12T09:47:22.891Z,939.1
2018-12-12T09:48:22.789Z,938.9
2018-12-12T09:49:22.714Z,939.2
2018-12-12T09:50:22.629Z,939.1
2018-12-12T09:51:22.542Z,939.1
2018-12-12T09:52:22.437Z,939.1
2018-12-12T09:53:22.318Z,937.8
2018-12-12T09:54:22.212Z,939
2018-12-12T09:55:22.099Z,939.2
2018-12-12T09:56:22.423Z,939.1
2018-12-12T09:57:22.352Z,937.4
2018-12-12T09:58:22.239Z,938.9
2018-12-12T09:59:22.127Z,939
2018-12-12T10:00:22.023Z,939
2018-12-12T10:01:21.928Z,939
2018-12-12T10:02:21.850Z,938.9
2018-12-12T10:03:21.746Z,938.9
2018-12-12T10:04:21.647Z,939
2018-12-12T10:05:24.199Z,938.9
2018-12-12T10:06:24.486Z,939.1
2018-12-12T10:07:24.401Z,938.9
2018-12-12T10:08:24.280Z,938.9
2018-12-12T10:09:24.159Z,939
2018-12-12T10:10:23.920Z,939
2018-12-12T10:11:23.644Z,939
2018-12-12T10:12:23.400Z,939
2018-12-12T10:13:23.127Z,939
2018-12-12T10:14:22.850Z,938.9
2018-12-12T10:15:22.581Z,939
2018-12-12T10:16:22.875Z,938.8
2018-12-12T10:17:22.756Z,938.9
2018-12-12T10:18:22.668Z,938.9
2018-12-12T10:19:22.546Z,938.9
2018-12-12T10:20:22.438Z,938.9
2018-12-12T10:21:22.403Z,938.7
2018-12-12T10:22:22.281Z,938.8
2018-12-12T10:23:22.169Z,938.8
2018-12-12T10:24:22.082Z,938.8
2018-12-12T10:25:21.966Z,938.8
2018-12-12T10:26:22.267Z,938.9
2018-12-12T10:27:22.187Z,938.9
2018-12-12T10:28:22.066Z,938.7
2018-12-12T10:29:21.991Z,938.9
2018-12-12T10:30:21.933Z,938.6
2018-12-12T10:31:24.420Z,937.2
2018-12-12T10:32:24.309Z,938.7
2018-12-12T10:33:24.195Z,938.8
2018-12-12T10:34:24.082Z,938.7
2018-12-12T10:35:23.977Z,938.7
2018-12-12T10:36:24.305Z,938.7
2018-12-12T10:37:24.204Z,938.7
2018-12-12T10:38:24.104Z,938.8
2018-12-12T10:39:24.024Z,938.7
2018-12-12T10:40:23.912Z,938.7
2018-12-12T10:41:23.810Z,938.7
2018-12-12T10:42:23.938Z,938.7
2018-12-12T10:43:23.847Z,938.6
2018-12-12T10:44:23.726Z,938.5
2018-12-12T10:45:23.651Z,938.6
2018-12-12T10:46:23.974Z,938.6
2018-12-12T10:47:23.866Z,938.7
2018-12-12T10:48:23.758Z,938.6
2018-12-12T10:49:23.659Z,938.6
2018-12-12T10:50:23.569Z,938.6
2018-12-12T10:51:23.483Z,938.6
2018-12-12T10:52:23.388Z,938.6
2018-12-12T10:53:23.291Z,938.5
2018-12-12T10:54:23.188Z,938.6
2018-12-12T10:55:23.076Z,938.5
2018-12-12T10:56:23.475Z,938.6
2018-12-12T10:57:23.361Z,937.7
2018-12-12T10:58:23.265Z,938.3
2018-12-12T10:59:23.174Z,938.5
2018-12-12T11:00:23.070Z,938.5
2018-12-12T11:01:22.968Z,938.4
2018-12-12T11:02:22.859Z,938.5
2018-12-12T11:03:22.810Z,938.5
2018-12-12T11:04:22.715Z,938.5
2018-12-12T11:05:22.619Z,938.5
2018-12-12T11:06:22.952Z,938.5
2018-12-12T11:07:22.867Z,938.5
2018-12-12T11:08:22.765Z,938.5
2018-12-12T11:09:22.671Z,938.5
2018-12-12T11:10:22.565Z,938.5
2018-12-12T11:11:22.468Z,938.5
2018-12-12T11:12:22.391Z,938.5
2018-12-12T11:13:22.305Z,938.6
2018-12-12T11:14:22.229Z,938.4
2018-12-12T11:15:22.143Z,938.4
2018-12-12T11:16:22.455Z,938.5
2018-12-12T11:17:22.369Z,938.5
2018-12-12T11:18:22.247Z,938.5
2018-12-12T11:19:22.131Z,938.5
2018-12-12T11:20:22.033Z,938.5
2018-12-12T11:21:21.921Z,938.6
2018-12-12T11:22:22.055Z,938.6
2018-12-12T11:23:21.945Z,938.6
2018-12-12T11:24:21.845Z,938.6
2018-12-12T11:25:21.755Z,938.6
2018-12-12T11:26:22.054Z,938.5
2018-12-12T11:27:21.989Z,938.6
2018-12-12T11:28:21.917Z,938.5
2018-12-12T11:29:21.797Z,938.5
2018-12-12T11:30:21.707Z,938.5
2018-12-12T11:31:21.613Z,938.5
2018-12-12T11:32:21.498Z,938.6
2018-12-12T11:33:21.434Z,938.5
2018-12-12T11:34:21.354Z,937
2018-12-12T11:35:21.263Z,938.5
2018-12-12T11:36:21.568Z,938.5
2018-12-12T11:37:21.494Z,938.5
2018-12-12T11:38:21.381Z,938.5
2018-12-12T11:39:21.312Z,938.5
2018-12-12T11:40:21.204Z,938.6
2018-12-12T11:41:21.105Z,938.5
2018-12-12T11:42:21.010Z,938.5
2018-12-12T11:43:20.911Z,938.6
2018-12-12T11:44:20.869Z,938.5
2018-12-12T11:45:20.766Z,938.5
2018-12-12T11:46:21.131Z,938.5
2018-12-12T11:47:21.044Z,937.5
2018-12-12T11:48:20.941Z,938.5
2018-12-12T11:49:20.855Z,938.5
2018-12-12T11:50:20.754Z,938.4
2018-12-12T11:51:20.662Z,938.5
2018-12-12T11:52:20.566Z,938.5
2018-12-12T11:53:20.453Z,936.9
2018-12-12T11:54:20.361Z,938.4
2018-12-12T11:55:20.264Z,938.5
2018-12-12T11:56:20.583Z,938.2
2018-12-12T11:57:20.514Z,938.4
2018-12-12T11:58:20.390Z,937.2
2018-12-12T11:59:20.287Z,938.3
2018-12-12T12:00:20.011Z,938.5
2018-12-12T12:01:19.752Z,938.4
2018-12-12T12:02:19.487Z,938.2
2018-12-12T12:03:19.219Z,938.3
2018-12-12T12:04:19.113Z,938.3
2018-12-12T12:05:18.846Z,938.3
2018-12-12T12:06:19.160Z,938.2
2018-12-12T12:07:19.314Z,938.1
2018-12-12T12:08:19.206Z,938.1
2018-12-12T12:09:19.099Z,938.1
2018-12-12T12:10:19.002Z,938.2
2018-12-12T12:11:18.906Z,938.2
2018-12-12T12:12:18.798Z,938.2
2018-12-12T12:13:18.672Z,938.2
2018-12-12T12:14:18.550Z,936.7
2018-12-12T12:15:18.437Z,938
2018-12-12T12:16:18.758Z,938.2
2018-12-12T12:17:18.632Z,938.2
2018-12-12T12:18:18.514Z,938.2
2018-12-12T12:19:18.414Z,938.2
2018-12-12T12:20:18.301Z,938.2
2018-12-12T12:21:18.174Z,938.1
2018-12-12T12:22:18.081Z,938
2018-12-12T12:23:17.983Z,938
2018-12-12T12:24:17.966Z,938.2
2018-12-12T12:25:17.861Z,938.2
2018-12-12T12:26:18.154Z,938.1
2018-12-12T12:27:18.042Z,938.2
2018-12-12T12:28:17.948Z,938.2
2018-12-12T12:29:17.856Z,938.1
2018-12-12T12:30:17.754Z,938.1
2018-12-12T12:31:17.644Z,938.1
2018-12-12T12:32:17.556Z,936.5
2018-12-12T12:33:17.454Z,938.1
2018-12-12T12:34:17.376Z,938.1
2018-12-12T12:35:17.282Z,938.1
2018-12-12T12:36:17.599Z,938.1
2018-12-12T12:37:17.482Z,938
2018-12-12T12:38:17.395Z,938
2018-12-12T12:39:17.316Z,938
2018-12-12T12:40:17.215Z,938
2018-12-12T12:41:17.098Z,937.8
2018-12-12T12:42:16.997Z,938
2018-12-12T12:43:16.870Z,938
2018-12-12T12:44:16.803Z,937.1
2018-12-12T12:45:16.680Z,938
2018-12-12T12:46:17.011Z,937.8
2018-12-12T12:47:16.928Z,937.8
2018-12-12T12:48:16.838Z,937.3
2018-12-12T12:49:16.748Z,937.9
2018-12-12T12:50:16.632Z,937.8
2018-12-12T12:51:18.753Z,937.9
2018-12-12T12:52:18.654Z,937.9
2018-12-12T12:53:18.604Z,937.9
2018-12-12T12:54:18.488Z,937.8
2018-12-12T12:55:18.218Z,937.9
2018-12-12T12:56:18.487Z,937.9
2018-12-12T12:57:18.369Z,937.9
2018-12-12T12:58:18.274Z,937.8
2018-12-12T12:59:18.190Z,937.8
2018-12-12T13:00:18.073Z,937.8